createdAt,value
2023-03-30T00:01:15.211Z,7.19
2023-03-30T00:03:45.310Z,7.17
2023-03-30T00:06:21.217Z,7.18
2023-03-30T00:08:57.780Z,7.21
2023-03-30T00:11:27.352Z,7.24
2023-03-30T00:13:55.387Z,7.26
2023-03-30T00:16:23.582Z,7.24
2023-03-30T00:18:52.088Z,7.24
2023-03-30T00:21:21.474Z,7.22
2023-03-30T00:23:50.464Z,7.22
2023-03-30T00:26:18.756Z,7.27
2023-03-30T00:28:46.933Z,7.27
2023-03-30T00:31:15.062Z,7.26
2023-03-30T00:33:47.029Z,7.26
2023-03-30T00:36:16.462Z,7.26
2023-03-30T00:38:45.950Z,7.28
2023-03-30T00:41:14.756Z,7.31
2023-03-30T00:44:03.292Z,7.32
2023-03-30T00:46:32.290Z,7.34
2023-03-30T00:49:09.751Z,7.34
2023-03-30T00:51:42.405Z,7.34
2023-03-30T00:54:16.868Z,7.34
2023-03-30T00:56:45.538Z,7.33
2023-03-30T00:59:14.534Z,7.30
2023-03-30T01:01:42.608Z,7.29
2023-03-30T01:04:13.312Z,7.27
2023-03-30T01:06:43.680Z,7.25
2023-03-30T01:09:13.269Z,7.28
2023-03-30T01:11:42.893Z,7.30
2023-03-30T01:14:14.965Z,7.31
2023-03-30T01:16:56.047Z,7.34
2023-03-30T01:19:36.447Z,7.34
2023-03-30T01:22:29.799Z,7.33
2023-03-30T01:25:15.321Z,7.34
2023-03-30T01:28:11.237Z,7.30
2023-03-30T01:31:21.947Z,7.27
2023-03-30T01:34:08.810Z,7.26
2023-03-30T01:36:58.107Z,7.24
2023-03-30T01:39:30.286Z,7.24
2023-03-30T01:42:19.174Z,7.20
2023-03-30T01:45:14.153Z,7.16
2023-03-30T01:47:55.221Z,7.18
2023-03-30T01:50:35.087Z,7.09
2023-03-30T01:53:23.592Z,7.04
2023-03-30T01:55:58.339Z,7.00
2023-03-30T01:58:36.197Z,7.03
2023-03-30T02:01:10.386Z,7.03
2023-03-30T02:03:42.181Z,7.05
2023-03-30T02:06:38.798Z,7.04
2023-03-30T02:09:11.412Z,7.03
2023-03-30T02:11:44.045Z,7.02
2023-03-30T02:14:16.125Z,6.96
2023-03-30T02:16:49.827Z,7.09
2023-03-30T02:19:19.473Z,7.12
2023-03-30T02:21:48.250Z,7.17
2023-03-30T02:24:20.789Z,7.19
2023-03-30T02:26:51.866Z,7.18
2023-03-30T02:29:22.397Z,7.13
2023-03-30T02:31:54.721Z,7.09
2023-03-30T02:34:38.177Z,7.13
2023-03-30T02:37:15.386Z,7.10
2023-03-30T02:39:52.342Z,7.08
2023-03-30T02:42:41.976Z,7.13
2023-03-30T02:45:49.282Z,7.19
2023-03-30T02:48:23.687Z,7.18
2023-03-30T02:51:08.824Z,7.15
2023-03-30T02:54:07.478Z,7.14
2023-03-30T02:57:12.005Z,7.12
2023-03-30T02:59:45.221Z,7.14
2023-03-30T03:02:23.810Z,7.13
2023-03-30T03:04:58.698Z,7.10
2023-03-30T03:07:48.270Z,7.13
2023-03-30T03:10:16.213Z,7.17
2023-03-30T03:12:45.316Z,7.20
2023-03-30T03:15:14.102Z,7.23
2023-03-30T03:17:51.711Z,7.31
2023-03-30T03:20:20.069Z,7.35
2023-03-30T03:22:48.005Z,7.37
2023-03-30T03:25:16.752Z,7.39
2023-03-30T03:27:54.359Z,7.36
2023-03-30T03:30:24.549Z,7.25
2023-03-30T03:33:00.982Z,7.17
2023-03-30T03:35:30.169Z,7.07
2023-03-30T03:37:58.913Z,7.00
2023-03-30T03:40:27.382Z,7.04
2023-03-30T03:42:56.392Z,7.04
2023-03-30T03:45:24.370Z,7.09
2023-03-30T03:47:57.982Z,7.09
2023-03-30T03:50:41.896Z,7.15
2023-03-30T03:53:11.018Z,7.16
2023-03-30T03:55:38.961Z,7.20
2023-03-30T03:58:08.191Z,7.28
2023-03-30T04:00:37.851Z,7.29
2023-03-30T04:03:06.281Z,7.25
2023-03-30T04:05:35.470Z,7.24
2023-03-30T04:08:04.045Z,7.18
2023-03-30T04:10:32.257Z,7.13
2023-03-30T04:13:20.156Z,7.14
2023-03-30T04:16:26.388Z,7.09
2023-03-30T04:19:09.127Z,7.04
2023-03-30T04:21:53.106Z,7.03
2023-03-30T04:25:00.099Z,7.01
2023-03-30T04:27:56.141Z,7.06
2023-03-30T04:30:45.760Z,7.14
2023-03-30T04:33:53.073Z,7.17
2023-03-30T04:36:43.412Z,7.21
2023-03-30T04:39:41.554Z,7.22
2023-03-30T04:42:34.325Z,7.17
2023-03-30T04:45:14.685Z,7.14
2023-03-30T04:48:02.956Z,7.11
2023-03-30T04:50:51.360Z,7.12
2023-03-30T04:53:37.753Z,7.12
2023-03-30T04:56:24.353Z,7.14
2023-03-30T04:59:06.680Z,7.14
2023-03-30T05:01:54.856Z,7.15
2023-03-30T05:04:43.276Z,7.20
2023-03-30T05:07:29.836Z,7.23
2023-03-30T05:10:17.904Z,7.32
2023-03-30T05:12:57.370Z,7.33
2023-03-30T05:15:54.922Z,7.32
2023-03-30T05:18:44.670Z,7.34
2023-03-30T05:21:38.872Z,7.35
2023-03-30T05:24:26.404Z,7.39
2023-03-30T05:27:13.654Z,7.36
2023-03-30T05:29:53.417Z,7.34
2023-03-30T05:32:40.854Z,7.42
2023-03-30T05:35:44.398Z,7.47
2023-03-30T05:38:36.244Z,7.58
2023-03-30T05:41:15.105Z,7.63
2023-03-30T05:43:58.054Z,7.67
2023-03-30T05:46:44.867Z,7.73
2023-03-30T05:49:42.943Z,7.78
2023-03-30T05:52:24.919Z,7.78
2023-03-30T05:55:31.122Z,7.81
2023-03-30T05:58:27.632Z,7.74
2023-03-30T06:01:07.595Z,7.70
2023-03-30T06:03:38.885Z,7.72
2023-03-30T06:06:08.125Z,7.73
2023-03-30T06:08:36.413Z,7.78
2023-03-30T06:11:06.464Z,7.81
2023-03-30T06:13:44.453Z,7.81
2023-03-30T06:16:12.351Z,7.86
2023-03-30T06:18:40.284Z,7.90
2023-03-30T06:21:10.347Z,7.98
2023-03-30T06:23:58.263Z,8.04
2023-03-30T06:26:28.735Z,8.19
2023-03-30T06:28:56.607Z,8.35
2023-03-30T06:31:25.384Z,8.47
2023-03-30T06:34:04.605Z,8.61
2023-03-30T06:36:44.622Z,8.70
2023-03-30T06:39:15.580Z,8.88
2023-03-30T06:41:43.563Z,9.02
2023-03-30T06:44:27.346Z,9.08
2023-03-30T06:46:55.525Z,9.07
2023-03-30T06:49:22.318Z,9.07
2023-03-30T06:52:08.883Z,9.06
2023-03-30T06:54:37.531Z,9.00
2023-03-30T06:57:08.009Z,8.89
2023-03-30T06:59:36.621Z,8.81
2023-03-30T07:02:23.025Z,8.70
2023-03-30T07:05:10.730Z,8.60
2023-03-30T07:07:47.710Z,8.56
2023-03-30T07:10:16.381Z,8.56
2023-03-30T07:12:45.571Z,8.59
2023-03-30T07:15:14.975Z,8.66
2023-03-30T07:17:43.459Z,8.77
2023-03-30T07:20:15.968Z,8.84
2023-03-30T07:22:58.987Z,8.94
2023-03-30T07:25:27.244Z,9.03
2023-03-30T07:27:56.190Z,9.10
2023-03-30T07:30:25.653Z,9.16
2023-03-30T07:32:59.022Z,9.22
2023-03-30T07:35:27.423Z,9.36
2023-03-30T07:38:02.854Z,9.49
2023-03-30T07:40:35.706Z,9.69
2023-03-30T07:43:04.206Z,9.88
2023-03-30T07:45:32.200Z,10.06
2023-03-30T07:48:01.032Z,10.28
2023-03-30T07:50:29.698Z,10.48
2023-03-30T07:52:58.622Z,10.58
2023-03-30T07:55:28.876Z,10.71
2023-03-30T07:58:02.494Z,10.81
2023-03-30T08:00:31.084Z,10.89
2023-03-30T08:03:18.464Z,10.89
2023-03-30T08:06:00.799Z,10.91
2023-03-30T08:08:34.225Z,10.92
2023-03-30T08:11:02.997Z,10.96
2023-03-30T08:13:33.046Z,11.06
2023-03-30T08:16:01.473Z,11.21
2023-03-30T08:18:29.654Z,11.29
2023-03-30T08:20:57.629Z,11.36
2023-03-30T08:23:25.530Z,11.51
2023-03-30T08:25:57.268Z,11.67
2023-03-30T08:28:25.810Z,11.76
2023-03-30T08:30:54.826Z,11.83
2023-03-30T08:33:25.762Z,11.92
2023-03-30T08:35:53.608Z,12.00
2023-03-30T08:38:21.587Z,11.98
2023-03-30T08:40:50.929Z,12.02
2023-03-30T08:43:22.582Z,12.21
2023-03-30T08:45:51.983Z,12.38
2023-03-30T08:48:25.007Z,12.53
2023-03-30T08:50:58.597Z,12.72
2023-03-30T08:53:29.648Z,12.86
2023-03-30T08:56:00.398Z,12.99
2023-03-30T08:59:06.235Z,13.17
2023-03-30T09:01:56.366Z,13.25
2023-03-30T09:04:45.929Z,13.43
2023-03-30T09:07:23.628Z,13.63
2023-03-30T09:09:52.951Z,13.77
2023-03-30T09:12:31.576Z,13.89
2023-03-30T09:15:06.028Z,14.06
2023-03-30T09:17:44.122Z,14.16
2023-03-30T09:20:19.475Z,14.30
2023-03-30T09:22:48.713Z,14.45
2023-03-30T09:25:26.837Z,14.53
2023-03-30T09:28:09.363Z,14.61
2023-03-30T09:30:48.213Z,14.74
2023-03-30T09:33:28.004Z,14.85
2023-03-30T09:36:20.167Z,14.96
2023-03-30T09:38:50.375Z,15.11
2023-03-30T09:41:35.289Z,15.30
2023-03-30T09:44:03.266Z,15.44
2023-03-30T09:46:31.460Z,15.54
2023-03-30T09:49:15.222Z,15.62
2023-03-30T09:52:01.836Z,15.75
2023-03-30T09:54:38.342Z,15.85
2023-03-30T09:57:22.422Z,15.94
2023-03-30T09:59:50.576Z,15.99
2023-03-30T10:02:20.766Z,16.03
2023-03-30T10:04:52.793Z,16.10
2023-03-30T10:07:25.318Z,16.21
2023-03-30T10:09:54.227Z,16.28
2023-03-30T10:12:25.335Z,16.31
2023-03-30T10:14:56.968Z,16.28
2023-03-30T10:17:26.882Z,16.25
2023-03-30T10:20:14.935Z,16.30
2023-03-30T10:22:53.562Z,16.33
2023-03-30T10:25:27.294Z,16.46
2023-03-30T10:27:58.301Z,16.64
2023-03-30T10:30:28.095Z,16.78
2023-03-30T10:32:59.565Z,16.82
2023-03-30T10:35:34.513Z,16.81
2023-03-30T10:38:05.175Z,16.91
2023-03-30T10:40:39.676Z,17.01
2023-03-30T10:43:28.016Z,16.99
2023-03-30T10:46:06.146Z,16.81
2023-03-30T10:49:00.417Z,16.68
2023-03-30T10:51:47.666Z,16.56
2023-03-30T10:54:27.487Z,16.35
2023-03-30T10:57:00.943Z,16.19
2023-03-30T11:00:13.114Z,16.08
2023-03-30T11:02:55.810Z,16.02
2023-03-30T11:05:35.823Z,16.04
2023-03-30T11:08:17.654Z,16.03
2023-03-30T11:10:53.123Z,15.95
2023-03-30T11:13:45.357Z,15.87
2023-03-30T11:16:20.938Z,15.75
2023-03-30T11:19:00.994Z,15.66
2023-03-30T11:21:39.559Z,15.55
2023-03-30T11:24:19.959Z,15.43
2023-03-30T11:27:14.345Z,15.32
2023-03-30T11:29:56.001Z,15.17
2023-03-30T11:32:35.756Z,15.09
2023-03-30T11:35:20.923Z,15.09
2023-03-30T11:38:01.363Z,15.06
2023-03-30T11:40:47.106Z,15.01
2023-03-30T11:43:16.559Z,14.91
2023-03-30T11:46:10.048Z,14.81
2023-03-30T11:49:04.362Z,14.77
2023-03-30T11:51:49.313Z,14.82
2023-03-30T11:54:49.628Z,14.90
2023-03-30T11:57:39.318Z,14.89
2023-03-30T12:00:26.867Z,14.89
2023-03-30T12:03:19.587Z,14.92
2023-03-30T12:06:14.769Z,14.99
2023-03-30T12:09:06.024Z,15.11
2023-03-30T12:11:43.725Z,15.27
2023-03-30T12:14:50.796Z,15.42
2023-03-30T12:17:40.904Z,15.58
2023-03-30T12:20:35.886Z,15.67
2023-03-30T12:23:12.856Z,15.71
2023-03-30T12:25:59.588Z,15.71
2023-03-30T12:29:26.184Z,15.65
2023-03-30T12:32:18.834Z,15.61
2023-03-30T12:34:46.870Z,15.61
2023-03-30T12:37:35.052Z,15.61
2023-03-30T12:40:09.678Z,15.63
2023-03-30T12:42:55.789Z,15.69
2023-03-30T12:45:33.307Z,15.74
2023-03-30T12:48:26.666Z,15.82
2023-03-30T12:51:32.043Z,16.01
2023-03-30T12:54:03.008Z,16.31
2023-03-30T12:56:38.291Z,16.54
2023-03-30T12:59:43.624Z,16.80
2023-03-30T13:02:30.806Z,17.02
2023-03-30T13:04:59.528Z,17.20
2023-03-30T13:07:35.063Z,17.35
2023-03-30T13:10:43.192Z,17.36
2023-03-30T13:13:46.680Z,17.23
2023-03-30T13:16:15.164Z,17.02
2023-03-30T13:18:55.359Z,16.90
2023-03-30T13:21:26.093Z,16.81
2023-03-30T13:24:41.424Z,16.73
2023-03-30T13:27:18.217Z,16.75
2023-03-30T13:29:57.078Z,16.76
2023-03-30T13:32:33.467Z,16.78
2023-03-30T13:35:19.627Z,16.84
2023-03-30T13:37:47.440Z,16.87
2023-03-30T13:40:38.014Z,16.91
2023-03-30T13:43:20.291Z,16.96
2023-03-30T13:45:48.210Z,16.96
2023-03-30T13:48:24.395Z,16.93
2023-03-30T13:50:59.232Z,16.94
2023-03-30T13:53:31.434Z,16.93
2023-03-30T13:55:59.554Z,16.89
2023-03-30T13:58:33.520Z,16.86
2023-03-30T14:01:07.554Z,16.88
2023-03-30T14:03:39.005Z,16.88
2023-03-30T14:06:13.672Z,16.85
2023-03-30T14:08:50.636Z,16.84
2023-03-30T14:11:22.438Z,16.94
2023-03-30T14:13:52.584Z,17.04
2023-03-30T14:16:26.737Z,17.06
2023-03-30T14:19:09.682Z,17.10
2023-03-30T14:21:39.499Z,17.12
2023-03-30T14:24:13.143Z,17.08
2023-03-30T14:26:41.910Z,17.06
2023-03-30T14:29:24.587Z,16.95
2023-03-30T14:32:09.189Z,16.86
2023-03-30T14:34:37.941Z,16.83
2023-03-30T14:37:08.357Z,16.94
2023-03-30T14:39:41.956Z,17.03
2023-03-30T14:42:15.662Z,17.07
2023-03-30T14:44:44.768Z,17.15
2023-03-30T14:47:14.078Z,17.19
2023-03-30T14:49:44.201Z,17.29
2023-03-30T14:52:22.077Z,17.18
2023-03-30T14:55:06.132Z,17.02
2023-03-30T14:57:40.555Z,16.82
2023-03-30T15:00:21.082Z,16.76
2023-03-30T15:02:55.252Z,16.60
2023-03-30T15:05:27.151Z,16.43
2023-03-30T15:07:55.860Z,16.30
2023-03-30T15:10:32.915Z,16.24
2023-03-30T15:13:03.403Z,16.07
2023-03-30T15:15:33.027Z,15.95
2023-03-30T15:18:04.291Z,15.79
2023-03-30T15:20:32.598Z,15.78
2023-03-30T15:23:01.121Z,15.66
2023-03-30T15:25:33.065Z,15.61
2023-03-30T15:28:19.379Z,15.55
2023-03-30T15:30:56.489Z,15.46
2023-03-30T15:33:42.041Z,15.34
2023-03-30T15:36:23.157Z,15.25
2023-03-30T15:38:54.577Z,15.18
2023-03-30T15:41:25.511Z,15.12
2023-03-30T15:44:09.525Z,15.06
2023-03-30T15:46:38.208Z,15.01
2023-03-30T15:49:07.083Z,14.93
2023-03-30T15:51:52.847Z,14.88
2023-03-30T15:54:27.505Z,14.82
2023-03-30T15:57:13.547Z,14.78
2023-03-30T15:59:49.433Z,14.71
2023-03-30T16:02:31.211Z,14.63
2023-03-30T16:05:05.156Z,14.55
2023-03-30T16:07:34.725Z,14.51
2023-03-30T16:10:02.648Z,14.47
2023-03-30T16:12:31.399Z,14.37
2023-03-30T16:14:59.313Z,14.35
2023-03-30T16:17:27.279Z,14.31
2023-03-30T16:19:55.159Z,14.30
2023-03-30T16:22:23.066Z,14.41
2023-03-30T16:24:51.284Z,14.51
2023-03-30T16:27:19.285Z,14.85
2023-03-30T16:29:47.093Z,14.77
2023-03-30T16:32:15.142Z,14.65
2023-03-30T16:34:44.004Z,14.65
2023-03-30T16:37:12.026Z,14.57
2023-03-30T16:39:40.544Z,14.43
2023-03-30T16:42:08.432Z,14.42
2023-03-30T16:44:36.552Z,14.38
2023-03-30T16:47:05.112Z,14.31
2023-03-30T16:49:33.210Z,14.25
2023-03-30T16:52:02.129Z,14.23
2023-03-30T16:54:32.597Z,14.15
2023-03-30T16:57:01.585Z,14.11
2023-03-30T16:59:32.034Z,14.07
2023-03-30T17:02:00.517Z,14.01
2023-03-30T17:04:28.579Z,13.96
2023-03-30T17:06:56.586Z,13.94
2023-03-30T17:09:24.457Z,13.89
2023-03-30T17:11:52.605Z,13.82
2023-03-30T17:14:20.978Z,13.79
2023-03-30T17:16:48.946Z,13.77
2023-03-30T17:19:16.858Z,13.74
2023-03-30T17:21:46.106Z,13.71
2023-03-30T17:24:16.470Z,13.66
2023-03-30T17:26:44.831Z,13.63
2023-03-30T17:29:12.975Z,13.58
2023-03-30T17:31:45.865Z,13.52
2023-03-30T17:34:14.889Z,13.44
2023-03-30T17:36:43.150Z,13.35
2023-03-30T17:39:14.912Z,13.22
2023-03-30T17:41:42.990Z,13.10
2023-03-30T17:44:10.965Z,12.99
2023-03-30T17:46:39.549Z,12.91
2023-03-30T17:49:16.879Z,12.84
2023-03-30T17:51:44.928Z,12.79
2023-03-30T17:54:13.282Z,12.79
2023-03-30T17:56:41.387Z,12.81
2023-03-30T17:59:11.609Z,12.85
2023-03-30T18:01:40.275Z,12.89
2023-03-30T18:04:09.409Z,12.88
2023-03-30T18:06:37.978Z,12.91
2023-03-30T18:09:13.982Z,12.86
2023-03-30T18:11:42.870Z,12.70
2023-03-30T18:14:11.247Z,12.45
2023-03-30T18:16:43.679Z,12.24
2023-03-30T18:19:12.010Z,12.00
2023-03-30T18:21:40.609Z,11.96
2023-03-30T18:24:08.637Z,11.90
2023-03-30T18:26:39.751Z,11.86
2023-03-30T18:29:22.285Z,11.78
2023-03-30T18:31:50.426Z,11.77
2023-03-30T18:34:19.733Z,11.67
2023-03-30T18:36:47.758Z,11.67
2023-03-30T18:39:22.427Z,11.68
2023-03-30T18:41:50.502Z,11.68
2023-03-30T18:44:18.484Z,11.67
2023-03-30T18:46:51.638Z,11.65
2023-03-30T18:49:23.850Z,11.64
2023-03-30T18:51:52.681Z,11.60
2023-03-30T18:54:20.849Z,11.59
2023-03-30T18:56:49.766Z,11.52
2023-03-30T18:59:19.829Z,11.50
2023-03-30T19:01:47.936Z,11.51
2023-03-30T19:04:15.994Z,11.49
2023-03-30T19:06:46.229Z,11.47
2023-03-30T19:09:14.212Z,11.48
2023-03-30T19:11:42.304Z,11.44
2023-03-30T19:14:11.995Z,11.37
2023-03-30T19:16:40.079Z,11.36
2023-03-30T19:19:14.876Z,11.32
2023-03-30T19:21:43.453Z,11.29
2023-03-30T19:24:13.965Z,11.25
2023-03-30T19:26:41.947Z,11.29
2023-03-30T19:29:09.804Z,11.28
2023-03-30T19:31:37.853Z,11.27
2023-03-30T19:34:07.376Z,11.26
2023-03-30T19:36:35.826Z,11.23
2023-03-30T19:39:03.991Z,11.18
2023-03-30T19:41:31.857Z,11.13
2023-03-30T19:43:59.728Z,11.14
2023-03-30T19:46:27.602Z,11.19
2023-03-30T19:48:55.635Z,11.19
2023-03-30T19:51:23.495Z,11.19
2023-03-30T19:53:51.371Z,11.19
2023-03-30T19:56:19.293Z,11.15
2023-03-30T19:58:47.422Z,11.07
2023-03-30T20:01:15.255Z,11.07
2023-03-30T20:03:43.720Z,11.05
2023-03-30T20:06:12.655Z,11.05
2023-03-30T20:08:40.838Z,11.05
2023-03-30T20:11:10.231Z,11.02
2023-03-30T20:13:38.670Z,10.98
2023-03-30T20:16:06.749Z,10.94
2023-03-30T20:18:35.730Z,10.92
2023-03-30T20:21:04.526Z,10.93
2023-03-30T20:23:33.205Z,10.90
2023-03-30T20:26:04.488Z,10.86
2023-03-30T20:28:32.708Z,10.84
2023-03-30T20:31:01.952Z,10.83
2023-03-30T20:33:32.934Z,10.81
2023-03-30T20:36:01.301Z,10.76
2023-03-30T20:38:29.334Z,10.78
2023-03-30T20:41:00.196Z,10.79
2023-03-30T20:43:28.312Z,10.80
2023-03-30T20:46:02.708Z,10.79
2023-03-30T20:48:39.369Z,10.80
2023-03-30T20:51:13.000Z,10.78
2023-03-30T20:53:42.527Z,10.74
2023-03-30T20:56:11.055Z,10.69
2023-03-30T20:58:39.856Z,10.67
2023-03-30T21:01:14.466Z,10.65
2023-03-30T21:03:44.314Z,10.63
2023-03-30T21:06:16.189Z,10.59
2023-03-30T21:08:44.465Z,10.56
2023-03-30T21:11:12.485Z,10.53
2023-03-30T21:13:40.328Z,10.47
2023-03-30T21:16:08.782Z,10.43
2023-03-30T21:18:36.647Z,10.39
2023-03-30T21:21:06.169Z,10.39
2023-03-30T21:23:35.013Z,10.31
2023-03-30T21:26:09.161Z,10.25
2023-03-30T21:28:38.024Z,10.14
2023-03-30T21:31:08.263Z,10.14
2023-03-30T21:33:37.006Z,10.10
2023-03-30T21:36:07.245Z,10.07
2023-03-30T21:38:36.394Z,10.05
2023-03-30T21:41:11.416Z,10.01
2023-03-30T21:43:43.165Z,9.96
2023-03-30T21:46:16.626Z,9.92
2023-03-30T21:48:46.380Z,9.90
2023-03-30T21:51:18.003Z,9.90
2023-03-30T21:53:48.436Z,9.90
2023-03-30T21:56:17.965Z,9.89
2023-03-30T21:58:46.242Z,9.86
2023-03-30T22:01:15.070Z,9.83
2023-03-30T22:03:45.042Z,9.82
2023-03-30T22:06:16.347Z,9.85
2023-03-30T22:08:45.566Z,9.83
2023-03-30T22:11:22.611Z,9.77
2023-03-30T22:13:52.099Z,9.75
2023-03-30T22:16:23.009Z,9.69
2023-03-30T22:18:51.706Z,9.71
2023-03-30T22:21:22.470Z,9.76
2023-03-30T22:23:51.223Z,9.75
2023-03-30T22:26:19.142Z,9.79
2023-03-30T22:28:47.235Z,9.82
2023-03-30T22:31:15.894Z,9.82
2023-03-30T22:33:44.469Z,9.86
2023-03-30T22:36:21.128Z,9.85
2023-03-30T22:38:50.846Z,9.81
2023-03-30T22:41:24.897Z,9.82
2023-03-30T22:43:54.711Z,9.83
2023-03-30T22:46:25.078Z,9.85
2023-03-30T22:48:55.865Z,9.87
2023-03-30T22:51:28.655Z,9.83
2023-03-30T22:53:59.419Z,9.78
2023-03-30T22:56:29.670Z,9.78
2023-03-30T22:58:59.966Z,9.76
2023-03-30T23:01:32.591Z,9.75
2023-03-30T23:04:01.802Z,9.75
2023-03-30T23:06:31.356Z,9.74
2023-03-30T23:09:01.680Z,9.76
2023-03-30T23:11:31.009Z,9.76
2023-03-30T23:14:05.520Z,9.72
2023-03-30T23:16:35.941Z,9.76
2023-03-30T23:19:05.925Z,9.77
2023-03-30T23:21:34.475Z,9.83
2023-03-30T23:24:05.297Z,9.82
2023-03-30T23:26:34.095Z,9.89
2023-03-30T23:29:02.109Z,9.93
2023-03-30T23:31:30.096Z,9.96
2023-03-30T23:33:58.112Z,9.99
2023-03-30T23:36:27.271Z,10.00
2023-03-30T23:38:55.239Z,10.00
2023-03-30T23:41:24.019Z,10.03
2023-03-30T23:43:51.824Z,10.07
2023-03-30T23:46:20.088Z,10.14
2023-03-30T23:48:48.111Z,10.16
2023-03-30T23:51:16.097Z,10.14
2023-03-30T23:53:43.918Z,10.16
2023-03-30T23:56:13.892Z,10.19
2023-03-30T23:58:41.860Z,10.19
